Time;durP1;ratioP1;P1;durP2;ratioP2;P2;SDS_P1;SDS_P2;PMS_P1;PMS_P2;Temp;Humidity;BMP_temperature;BMP_pressure;BME280_temperature;BME280_humidity;BME280_pressure;Samples;Min_cycle;Max_cycle;Signal;HPM_P1;HPM_P2
2022/01/24 00:01:57;;;;;;;32.20;17.95;;;;;;;5.43;73.73;103454.53;5019247;28;20077;-69
2022/01/24 00:04:25;;;;;;;29.50;17.92;;;;;;;5.43;74.01;103458.88;5023659;28;20471;-69
2022/01/24 00:06:53;;;;;;;31.58;17.65;;;;;;;5.42;74.22;103460.59;5024748;28;20056;-69
2022/01/24 00:09:21;;;;;;;26.02;16.05;;;;;;;5.42;74.35;103455.34;5019084;28;20476;-70
2022/01/24 00:17:01;;;;;;;28.83;16.90;;;;;;;5.42;74.12;103467.56;5022349;28;20046;-68
2022/01/24 00:28:06;;;;;;;25.00;13.75;;;;;;;5.38;72.56;103450.88;4969827;28;20047;-68
2022/01/24 00:30:34;;;;;;;20.50;12.02;;;;;;;5.38;71.92;103448.28;5009852;28;20054;-68
2022/01/24 00:33:01;;;;;;;18.73;12.32;;;;;;;5.38;72.35;103456.13;5020126;28;20140;-69
2022/01/24 00:35:28;;;;;;;20.20;12.45;;;;;;;5.39;72.44;103454.38;5020530;28;20042;-69
2022/01/24 00:37:59;;;;;;;18.98;11.77;;;;;;;5.38;72.32;103445.66;5022015;28;20046;-67
2022/01/24 00:40:29;;;;;;;19.83;12.45;;;;;;;5.39;72.21;103451.75;5021225;28;20041;-68
2022/01/24 00:42:59;;;;;;;17.90;11.80;;;;;;;5.39;72.22;103444.78;5020653;28;20041;-69
2022/01/24 00:45:51;;;;;;;22.48;13.15;;;;;;;5.37;71.98;103440.34;5017651;28;20066;-70
2022/01/24 00:56:11;;;;;;;19.85;12.90;;;;;;;5.34;72.11;103441.16;5020113;28;20048;-70
2022/01/24 00:58:39;;;;;;;19.15;12.23;;;;;;;5.35;72.51;103442.00;5022954;28;20040;-70
2022/01/24 01:01:06;;;;;;;19.98;12.20;;;;;;;5.35;72.49;103444.63;5023579;28;20046;-70
2022/01/24 01:03:34;;;;;;;22.00;13.00;;;;;;;5.33;72.22;103436.75;5021947;28;20491;-70
2022/01/24 01:06:09;;;;;;;22.40;13.55;;;;;;;5.33;72.41;103439.38;5021921;28;20042;-69
2022/01/24 01:19:46;;;;;;;22.38;13.02;;;;;;;5.31;71.41;103432.31;5019502;28;20042;-68
2022/01/24 01:22:13;;;;;;;17.98;11.88;;;;;;;5.31;71.02;103437.53;5025231;28;20034;-68
2022/01/24 01:24:47;;;;;;;21.45;12.52;;;;;;;5.28;71.60;103430.50;5022090;28;20046;-68
2022/01/24 01:27:19;;;;;;;19.83;12.40;;;;;;;5.25;71.53;103435.59;5030577;28;20061;-69
2022/01/24 01:29:57;;;;;;;19.42;12.10;;;;;;;5.20;71.53;103426.69;5033808;28;20053;-69
2022/01/24 01:53:50;;;;;;;20.05;12.18;;;;;;;4.54;73.31;103418.34;5018074;28;20065;-68
2022/01/24 01:56:15;;;;;;;20.85;12.57;;;;;;;4.42;73.62;103412.69;5017268;28;20078;-68
2022/01/24 01:58:42;;;;;;;22.80;12.65;;;;;;;4.31;73.90;103413.19;5020380;28;20046;-70
2022/01/24 02:01:09;;;;;;;22.38;12.93;;;;;;;4.20;74.15;103419.72;5018853;28;20046;-68
2022/01/24 02:03:36;;;;;;;20.50;12.52;;;;;;;4.10;74.37;103423.72;5018433;28;20066;-69
2022/01/24 02:06:03;;;;;;;19.05;12.00;;;;;;;4.01;74.69;103426.88;5019202;28;20594;-71
2022/01/24 02:08:32;;;;;;;19.65;12.90;;;;;;;3.93;74.95;103414.34;5016571;28;20042;-70
2022/01/24 02:11:00;;;;;;;20.27;11.90;;;;;;;3.85;75.23;103420.16;5020627;28;20038;-68
2022/01/24 02:13:29;;;;;;;20.02;12.40;;;;;;;3.81;75.40;103418.25;5019133;28;20034;-70
2022/01/24 02:18:41;;;;;;;19.67;12.57;;;;;;;3.76;75.18;103416.28;5019967;28;20049;-69
2022/01/24 02:21:27;;;;;;;19.13;11.43;;;;;;;3.72;75.93;103417.91;5019927;28;20416;-69
2022/01/24 02:23:58;;;;;;;20.35;12.40;;;;;;;3.71;75.75;103413.50;5016991;28;20046;-69
2022/01/24 02:26:25;;;;;;;17.92;11.88;;;;;;;3.70;75.79;103411.72;5025078;28;20043;-69
2022/01/24 02:29:06;;;;;;;20.98;12.07;;;;;;;3.69;75.87;103410.84;5019458;28;20046;-69
2022/01/24 02:34:23;;;;;;;21.45;13.40;;;;;;;3.67;75.95;103406.38;5025595;28;20042;-71
2022/01/24 02:36:51;;;;;;;21.30;13.05;;;;;;;3.65;76.07;103408.94;5023264;28;20038;-70
2022/01/24 02:39:44;;;;;;;21.88;13.05;;;;;;;3.64;76.27;103404.53;5020006;28;20038;-71
2022/01/24 02:50:28;;;;;;;22.13;12.93;;;;;;;3.70;76.25;103403.91;5016786;28;20042;-70
2022/01/24 02:52:55;;;;;;;22.35;12.63;;;;;;;3.69;76.18;103407.31;5018967;28;20049;-68
2022/01/24 02:55:22;;;;;;;19.63;12.30;;;;;;;3.68;76.38;103408.16;5019348;28;20050;-69
2022/01/24 02:57:49;;;;;;;21.45;12.98;;;;;;;3.68;76.37;103410.75;5027025;28;20309;-69
2022/01/24 03:00:16;;;;;;;20.48;12.60;;;;;;;3.71;76.35;103409.16;5024465;28;20042;-68
2022/01/24 03:02:43;;;;;;;17.92;12.10;;;;;;;3.75;76.42;103404.97;5025013;28;20030;-68
2022/01/24 03:05:11;;;;;;;18.60;11.98;;;;;;;3.79;76.23;103399.03;5025742;28;20062;-69
2022/01/24 03:07:38;;;;;;;22.00;12.95;;;;;;;3.82;76.12;103398.25;5025884;28;20121;-68
2022/01/24 03:10:13;;;;;;;18.98;11.63;;;;;;;3.86;76.04;103394.94;5029286;28;20050;-69
2022/01/24 03:12:44;;;;;;;22.20;13.20;;;;;;;3.87;76.25;103395.00;5027622;28;20045;-69
2022/01/24 03:15:11;;;;;;;18.58;12.00;;;;;;;3.87;76.36;103395.00;5024509;28;20567;-69
2022/01/24 03:17:39;;;;;;;21.33;12.82;;;;;;;3.89;76.58;103392.47;5036244;28;20038;-71
2022/01/24 03:20:06;;;;;;;20.45;12.27;;;;;;;3.87;76.30;103395.00;5036597;28;20049;-70
2022/01/24 03:22:33;;;;;;;20.67;12.65;;;;;;;3.87;76.35;103389.78;5028399;28;20065;-70
2022/01/24 03:25:00;;;;;;;21.95;12.80;;;;;;;3.88;76.35;103385.47;5029152;28;20045;-69
2022/01/24 03:27:27;;;;;;;19.52;12.45;;;;;;;3.88;76.39;103382.84;5031489;28;20042;-68
2022/01/24 03:29:54;;;;;;;19.13;11.93;;;;;;;3.89;76.32;103380.28;5026114;28;20042;-68
2022/01/24 03:32:21;;;;;;;21.90;13.02;;;;;;;3.89;76.34;103382.91;5026466;28;20057;-68
2022/01/24 03:34:48;;;;;;;22.98;12.88;;;;;;;3.88;76.34;103386.34;5040188;28;20113;-68
2022/01/24 03:37:15;;;;;;;21.25;12.90;;;;;;;3.90;76.35;103383.81;5033539;28;20046;-68
2022/01/24 03:39:42;;;;;;;19.08;12.35;;;;;;;3.92;76.34;103383.84;5029172;28;20081;-68
2022/01/24 03:42:09;;;;;;;21.20;12.63;;;;;;;3.89;76.23;103384.63;5036196;28;20499;-68
2022/01/24 03:44:38;;;;;;;20.73;13.07;;;;;;;3.89;76.41;103390.72;5034204;28;20073;-68
2022/01/24 03:48:08;;;;;;;19.00;12.05;;;;;;;3.86;76.33;103382.81;5023260;28;20046;-68
2022/01/24 03:50:08;;;;;;;20.10;12.35;;;;;;;3.86;76.44;103384.50;5018880;28;20066;-68
2022/01/24 03:52:35;;;;;;;19.98;12.45;;;;;;;3.84;76.62;103387.06;5030529;28;20065;-69
2022/01/24 03:55:04;;;;;;;23.10;14.13;;;;;;;3.84;76.42;103380.94;5019943;28;20505;-69
2022/01/24 03:57:31;;;;;;;20.35;12.95;;;;;;;3.83;76.34;103381.75;5019091;28;20050;-69
2022/01/24 03:59:58;;;;;;;21.98;12.82;;;;;;;3.81;76.40;103376.50;5024916;28;20042;-70
2022/01/24 04:02:27;;;;;;;21.92;12.80;;;;;;;3.83;76.33;103374.84;5019515;28;20150;-70
2022/01/24 04:04:55;;;;;;;20.23;12.60;;;;;;;3.84;76.50;103374.03;5020492;28;20050;-70
2022/01/24 04:07:22;;;;;;;20.50;12.52;;;;;;;3.84;76.27;103370.50;5019588;28;20061;-71
2022/01/24 04:09:50;;;;;;;21.08;11.75;;;;;;;3.85;76.24;103367.06;5018095;28;20519;-70
2022/01/24 04:12:17;;;;;;;19.92;11.95;;;;;;;3.84;76.12;103374.03;5019821;28;20046;-71
2022/01/24 04:22:32;;;;;;;17.58;11.93;;;;;;;3.87;76.00;103371.50;5021868;28;20405;-71
2022/01/24 04:25:01;;;;;;;18.50;11.60;;;;;;;3.88;76.17;103370.69;5023977;28;20599;-71
2022/01/24 04:27:30;;;;;;;18.90;12.02;;;;;;;3.89;76.00;103371.59;5025124;28;20038;-70
2022/01/24 04:29:58;;;;;;;19.85;11.50;;;;;;;3.87;76.06;103368.91;5022442;28;20027;-71
2022/01/24 04:32:25;;;;;;;18.08;11.65;;;;;;;3.88;75.90;103377.63;5021170;28;20051;-71
2022/01/24 04:34:52;;;;;;;18.38;11.35;;;;;;;3.84;75.84;103371.41;5022788;28;20042;-71
2022/01/24 04:37:19;;;;;;;18.80;11.55;;;;;;;3.84;75.98;103376.63;5021561;28;20042;-71
2022/01/24 04:39:47;;;;;;;17.33;11.55;;;;;;;3.84;75.91;103375.72;5024701;28;20049;-70
2022/01/24 04:42:23;;;;;;;19.98;12.27;;;;;;;3.84;75.69;103381.84;5021716;28;20099;-71
2022/01/24 04:45:11;;;;;;;19.67;11.23;;;;;;;3.82;75.72;103382.59;5022750;28;20047;-71
2022/01/24 04:50:23;;;;;;;16.38;10.48;;;;;;;3.84;75.76;103380.94;5022764;28;20104;-72
2022/01/24 04:50:45;;;;;;;16.25;10.52;;;;;;;3.83;75.59;103384.38;5025745;28;20042;-71
2022/01/24 04:53:43;;;;;;;19.25;11.18;;;;;;;3.83;75.70;103381.75;5024224;28;20042;-70
2022/01/24 04:56:02;;;;;;;17.80;10.85;;;;;;;3.80;75.83;103379.94;5018380;28;20050;-71
2022/01/24 04:58:30;;;;;;;17.65;11.18;;;;;;;3.79;75.85;103379.88;5034814;28;20052;-71
2022/01/24 05:00:57;;;;;;;18.75;10.90;;;;;;;3.77;76.01;103377.19;5028273;28;20042;-71
2022/01/24 05:03:24;;;;;;;17.58;11.18;;;;;;;3.77;76.28;103384.16;5024228;28;20137;-72
2022/01/24 05:05:52;;;;;;;17.30;10.57;;;;;;;3.78;76.06;103391.16;5019717;28;20468;-70
2022/01/24 05:08:19;;;;;;;17.75;10.38;;;;;;;3.76;75.84;103382.38;5018680;28;20365;-69
2022/01/24 05:24:37;;;;;;;15.25;9.82;;;;;;;3.75;75.66;103383.19;5021153;28;20044;-69
2022/01/24 05:27:05;;;;;;;15.95;10.02;;;;;;;3.73;75.59;103373.59;5018107;28;20050;-70
2022/01/24 05:29:35;;;;;;;14.52;9.85;;;;;;;3.72;75.61;103379.63;5022474;28;20061;-70
2022/01/24 05:32:05;;;;;;;14.85;9.77;;;;;;;3.71;75.46;103388.28;5022924;28;20046;-67
2022/01/24 05:34:32;;;;;;;14.80;9.75;;;;;;;3.69;75.76;103382.16;5014647;28;20129;-68
2022/01/24 05:36:59;;;;;;;17.10;10.40;;;;;;;3.70;75.84;103383.03;5022490;28;20046;-68
2022/01/24 05:39:26;;;;;;;14.38;9.82;;;;;;;3.69;75.84;103386.44;5019591;28;20518;-67
2022/01/24 05:41:53;;;;;;;16.58;10.13;;;;;;;3.66;75.93;103373.31;5018784;28;20038;-66
2022/01/24 05:44:20;;;;;;;14.52;9.82;;;;;;;3.67;76.06;103375.06;5021755;28;20052;-69
2022/01/24 05:46:47;;;;;;;17.25;9.25;;;;;;;3.67;76.08;103381.19;5019429;28;20054;-69
2022/01/24 05:49:14;;;;;;;17.60;9.90;;;;;;;3.66;76.10;103383.75;5018179;28;20137;-69
2022/01/24 05:51:41;;;;;;;16.25;9.95;;;;;;;3.66;76.11;103386.34;5018258;28;20041;-70
2022/01/24 05:54:11;;;;;;;14.63;10.07;;;;;;;3.64;76.22;103381.06;5028194;28;20046;-70
2022/01/24 05:56:38;;;;;;;17.65;10.95;;;;;;;3.65;76.17;103385.44;5023474;28;20552;-70
2022/01/24 05:59:05;;;;;;;17.27;10.63;;;;;;;3.68;76.44;103382.06;5024791;28;20456;-71
2022/01/24 06:01:35;;;;;;;18.50;9.32;;;;;;;3.70;76.09;103383.94;5019585;28;20077;-71
2022/01/24 06:04:02;;;;;;;15.20;9.55;;;;;;;3.68;76.20;103382.97;5030101;28;20042;-69
2022/01/24 06:06:30;;;;;;;16.77;10.35;;;;;;;3.70;76.15;103393.47;5027060;28;20073;-71
2022/01/24 06:08:57;;;;;;;17.00;10.25;;;;;;;3.67;76.10;103386.41;5022009;28;20046;-71
2022/01/24 06:11:24;;;;;;;15.65;10.20;;;;;;;3.65;76.16;103382.84;5026235;28;20053;-71
2022/01/24 06:13:52;;;;;;;13.38;9.27;;;;;;;3.66;76.17;103386.34;5028426;28;20057;-71
2022/01/24 06:16:19;;;;;;;14.63;9.77;;;;;;;3.68;76.18;103387.28;5015217;28;20086;-70
2022/01/24 06:18:46;;;;;;;15.65;10.73;;;;;;;3.68;76.11;103384.66;5023200;28;20074;-70
2022/01/24 06:21:14;;;;;;;15.82;9.80;;;;;;;3.69;76.29;103392.59;5025653;28;20105;-70
2022/01/24 06:23:41;;;;;;;13.98;9.65;;;;;;;3.69;76.25;103392.59;5030469;28;20034;-69
2022/01/24 06:26:10;;;;;;;14.98;9.70;;;;;;;3.72;76.31;103389.19;5025936;28;20711;-71
2022/01/24 06:28:37;;;;;;;15.70;10.50;;;;;;;3.73;76.40;103384.03;5021483;28;20031;-70
2022/01/24 06:31:05;;;;;;;16.02;9.55;;;;;;;3.73;76.38;103388.38;5023763;28;20044;-70
2022/01/24 06:33:33;;;;;;;15.52;10.05;;;;;;;3.74;76.44;103382.31;5017417;28;20043;-69
2022/01/24 06:36:00;;;;;;;15.60;10.15;;;;;;;3.75;76.34;103380.59;5012451;28;20049;-70
2022/01/24 06:38:28;;;;;;;13.43;9.70;;;;;;;3.77;76.40;103386.75;5016171;28;20498;-71
2022/01/24 06:40:56;;;;;;;15.60;9.93;;;;;;;3.76;76.41;103379.75;5022160;28;20432;-70
2022/01/24 06:43:23;;;;;;;16.67;9.25;;;;;;;3.74;76.16;103382.31;5018150;28;20477;-69
2022/01/24 06:45:51;;;;;;;16.67;9.98;;;;;;;3.73;76.26;103381.41;5023154;28;20105;-70
2022/01/24 06:48:18;;;;;;;17.05;9.50;;;;;;;3.74;76.21;103384.94;5028410;28;20038;-69
2022/01/24 06:50:45;;;;;;;14.52;9.57;;;;;;;3.73;76.13;103384.03;5028603;28;20046;-69
2022/01/24 06:53:12;;;;;;;17.48;8.77;;;;;;;3.74;76.19;103390.16;5020512;28;20129;-69
2022/01/24 06:55:39;;;;;;;11.77;8.45;;;;;;;3.74;76.62;103392.75;5019484;28;20038;-70
2022/01/24 06:58:06;;;;;;;12.75;8.73;;;;;;;3.73;76.17;103386.63;5030271;28;20086;-69
2022/01/24 07:00:34;;;;;;;11.10;8.05;;;;;;;3.74;76.19;103390.16;5022127;28;20920;-69
2022/01/24 07:03:02;;;;;;;11.20;7.43;;;;;;;3.75;76.05;103388.41;5017895;28;20929;-70
2022/01/24 07:05:31;;;;;;;11.60;7.55;;;;;;;3.75;75.99;103401.47;5022778;28;20513;-69
2022/01/24 07:07:59;;;;;;;9.68;6.78;;;;;;;3.76;75.92;103403.25;5027506;28;20041;-69
2022/01/24 07:10:28;;;;;;;10.05;7.28;;;;;;;3.77;75.96;103394.59;5016178;28;20085;-69
2022/01/24 07:12:58;;;;;;;12.98;7.65;;;;;;;3.79;75.85;103399.03;5025661;28;20771;-70
2022/01/24 07:15:33;;;;;;;10.13;7.30;;;;;;;3.78;75.92;103392.03;5030991;28;20121;-69
2022/01/24 07:20:35;;;;;;;10.30;7.70;;;;;;;3.81;75.96;103396.50;5029678;28;20084;-69
2022/01/24 07:23:03;;;;;;;11.20;7.47;;;;;;;3.83;75.98;103403.56;5024241;28;20038;-69
2022/01/24 07:25:30;;;;;;;10.55;7.68;;;;;;;3.83;75.92;103403.56;5030027;28;20429;-69
2022/01/24 07:27:58;;;;;;;10.85;7.72;;;;;;;3.84;75.81;103397.50;5027102;28;20491;-69
2022/01/24 07:30:25;;;;;;;11.07;8.32;;;;;;;3.86;75.82;103400.16;5033228;28;20038;-69
2022/01/24 07:32:53;;;;;;;15.82;9.32;;;;;;;3.87;75.88;103405.44;5018368;28;20034;-68
2022/01/24 07:35:21;;;;;;;11.05;7.90;;;;;;;3.89;75.60;103402.91;5033943;28;20046;-69
2022/01/24 07:37:48;;;;;;;12.48;8.02;;;;;;;3.88;75.75;103416.78;5023244;28;20046;-71
2022/01/24 07:40:15;;;;;;;13.43;7.97;;;;;;;3.89;75.52;103413.34;5042664;28;20065;-70
2022/01/24 07:42:55;;;;;;;12.30;7.90;;;;;;;3.88;75.46;103408.94;5035921;28;20045;-70
2022/01/24 07:45:26;;;;;;;12.18;8.13;;;;;;;3.87;75.46;103412.38;5019408;28;20034;-70
2022/01/24 07:47:57;;;;;;;10.13;7.18;;;;;;;3.87;75.62;103415.00;5017564;28;20053;-69
2022/01/24 07:50:26;;;;;;;11.30;7.97;;;;;;;3.88;75.52;103422.00;5021031;28;20113;-68
2022/01/24 07:52:55;;;;;;;11.35;8.02;;;;;;;3.90;75.42;103420.34;5021316;28;20048;-68
2022/01/24 07:55:22;;;;;;;10.38;7.82;;;;;;;3.91;75.58;103429.97;5014048;28;20042;-68
2022/01/24 07:57:49;;;;;;;10.48;7.95;;;;;;;3.93;75.18;103435.22;5027287;28;20054;-67
2022/01/24 08:00:17;;;;;;;13.15;9.13;;;;;;;3.92;75.35;103431.72;5020335;28;20039;-67
2022/01/24 08:02:44;;;;;;;10.77;8.40;;;;;;;3.94;75.32;103434.41;5024586;28;20039;-67
2022/01/24 08:05:12;;;;;;;12.73;9.10;;;;;;;3.96;75.36;103438.84;5022623;28;20046;-67
2022/01/24 08:07:40;;;;;;;12.77;9.02;;;;;;;3.97;75.36;103442.34;5036220;28;20049;-70
2022/01/24 08:10:09;;;;;;;24.90;9.38;;;;;;;4.00;75.43;103432.00;5026400;28;20043;-71
2022/01/24 08:12:39;;;;;;;14.52;8.93;;;;;;;4.00;75.01;103424.19;5033006;28;20046;-71
2022/01/24 08:15:11;;;;;;;13.80;9.63;;;;;;;3.99;74.90;103436.34;5030839;28;20034;-70
2022/01/24 08:17:42;;;;;;;12.20;9.27;;;;;;;3.99;75.11;103430.22;5031359;28;20109;-70
2022/01/24 08:20:12;;;;;;;16.67;10.07;;;;;;;4.00;75.52;103440.75;5014340;28;20046;-70
2022/01/24 08:23:02;;;;;;;14.18;9.43;;;;;;;4.03;75.30;103440.84;5027625;28;20117;-68
2022/01/24 08:25:29;;;;;;;13.40;10.07;;;;;;;4.08;75.38;103438.41;5025438;28;20789;-68
2022/01/24 08:27:56;;;;;;;16.38;9.90;;;;;;;4.10;75.28;103438.50;5020706;28;20049;-69
2022/01/24 08:30:28;;;;;;;15.98;10.88;;;;;;;4.11;75.18;103437.66;5017502;28;20074;-70
2022/01/24 08:32:55;;;;;;;15.02;10.07;;;;;;;4.12;74.97;103442.06;5019470;28;20042;-68
2022/01/24 08:35:23;;;;;;;14.18;10.48;;;;;;;4.13;75.05;103434.28;5017760;28;20065;-70
2022/01/24 08:37:50;;;;;;;17.60;11.15;;;;;;;4.17;75.26;103437.88;5031440;28;20109;-68
2022/01/24 08:40:27;;;;;;;14.48;11.05;;;;;;;4.19;75.01;103437.09;5027161;28;20046;-69
2022/01/24 08:43:01;;;;;;;17.77;11.18;;;;;;;4.22;75.15;103438.97;5032128;28;20048;-70
2022/01/24 08:45:47;;;;;;;15.18;10.23;;;;;;;4.26;75.01;103448.69;5016641;28;20049;-70
2022/01/24 08:48:21;;;;;;;15.60;10.68;;;;;;;4.29;75.08;103443.59;5025573;28;20070;-70
2022/01/24 08:50:55;;;;;;;16.58;11.30;;;;;;;4.32;75.11;103446.28;5022932;28;20054;-68
2022/01/24 08:53:31;;;;;;;18.17;11.48;;;;;;;4.37;75.18;103445.56;5016091;28;20062;-67
2022/01/24 08:56:05;;;;;;;16.17;11.43;;;;;;;4.42;75.17;103433.59;5028229;28;20121;-67
2022/01/24 08:58:35;;;;;;;16.55;11.00;;;;;;;4.47;74.95;103432.03;5016120;28;20646;-67
2022/01/24 09:01:03;;;;;;;15.45;11.55;;;;;;;4.49;74.83;103433.84;5020720;28;20149;-71
2022/01/24 09:03:36;;;;;;;15.82;11.50;;;;;;;4.51;74.59;103429.56;5025133;28;20121;-69
2022/01/24 09:06:03;;;;;;;14.55;10.90;;;;;;;4.54;74.64;103436.63;5033325;28;20759;-67
2022/01/24 09:08:30;;;;;;;17.48;11.32;;;;;;;4.59;74.65;103437.72;5025096;28;20053;-69
2022/01/24 09:10:57;;;;;;;15.85;12.32;;;;;;;4.62;74.55;103424.75;5027458;28;20584;-68
2022/01/24 09:13:25;;;;;;;23.83;17.38;;;;;;;4.66;74.37;103429.25;5018722;28;20117;-68
2022/01/24 09:15:52;;;;;;;33.03;29.00;;;;;;;4.70;74.36;103422.41;5023197;28;20195;-68
2022/01/24 09:18:19;;;;;;;20.00;16.50;;;;;;;4.74;74.26;103429.53;5029559;28;20766;-67
2022/01/24 09:20:50;;;;;;;18.40;14.20;;;;;;;4.78;74.04;103426.16;5016481;28;20053;-67
2022/01/24 09:23:19;;;;;;;19.10;13.82;;;;;;;4.82;74.11;103422.84;5024500;28;20104;-67
2022/01/24 09:25:46;;;;;;;15.98;11.63;;;;;;;4.89;73.83;103417.81;5019320;28;20046;-68
2022/01/24 09:28:14;;;;;;;50.90;30.27;;;;;;;4.93;73.69;103418.00;5026896;28;20512;-67
2022/01/24 09:30:42;;;;;;;24.50;16.77;;;;;;;5.02;73.63;103424.38;5031604;28;20056;-67
2022/01/24 09:33:13;;;;;;;17.83;13.00;;;;;;;5.05;73.29;103422.75;5019943;28;20497;-67
2022/01/24 09:35:42;;;;;;;13.98;11.55;;;;;;;5.09;73.01;103429.84;5026212;28;20051;-71
2022/01/24 09:38:10;;;;;;;16.02;11.63;;;;;;;5.12;72.81;103436.94;5027061;28;20042;-68
2022/01/24 09:40:43;;;;;;;20.73;15.05;;;;;;;5.17;72.97;103429.25;5029698;28;20038;-69
2022/01/24 09:43:13;;;;;;;24.23;16.93;;;;;;;5.21;72.86;103429.38;5021661;28;20121;-70
2022/01/24 09:45:42;;;;;;;23.73;18.17;;;;;;;5.28;72.84;103427.88;5020959;28;20260;-64
2022/01/24 09:48:12;;;;;;;28.48;21.83;;;;;;;5.33;72.52;103421.06;5024725;28;20052;-69
2022/01/24 09:50:42;;;;;;;48.83;31.17;;;;;;;5.38;72.50;103419.50;5025429;28;20038;-68
2022/01/24 09:53:10;;;;;;;56.13;36.85;;;;;;;5.45;72.42;103423.16;5030806;28;20952;-67
2022/01/24 09:55:37;;;;;;;34.30;24.45;;;;;;;5.49;72.33;103425.06;5030495;28;20046;-68
2022/01/24 09:58:04;;;;;;;16.50;12.10;;;;;;;5.56;71.88;103428.75;5012538;28;20055;-67
2022/01/24 10:00:31;;;;;;;83.03;43.33;;;;;;;5.59;71.98;103424.50;5017016;28;20130;-67
2022/01/24 10:02:59;;;;;;;26.42;17.00;;;;;;;5.63;71.65;103422.88;5023980;28;20049;-67
2022/01/24 10:05:54;;;;;;;25.13;18.08;;;;;;;5.68;71.74;103426.53;5015328;28;20149;-67
2022/01/24 10:08:31;;;;;;;17.88;13.45;;;;;;;5.72;71.87;103423.16;5028275;28;20033;-68
2022/01/24 10:11:03;;;;;;;16.42;12.20;;;;;;;5.78;71.46;103419.84;5019811;28;20038;-67
2022/01/24 10:16:45;;;;;;;126.80;62.83;;;;;;;5.84;71.13;103409.59;5013812;28;20056;-68
2022/01/24 10:19:17;;;;;;;21.10;14.95;;;;;;;5.90;70.95;103411.50;5021026;28;20042;-68
2022/01/24 10:22:04;;;;;;;19.30;14.27;;;;;;;5.95;70.91;103428.22;5032090;28;20038;-68
2022/01/24 10:24:41;;;;;;;18.83;9.98;;;;;;;6.00;70.70;103424.03;5026057;28;20042;-67
2022/01/24 10:27:25;;;;;;;68.07;45.38;;;;;;;6.05;70.12;103422.47;5021064;28;20112;-68
2022/01/24 10:30:08;;;;;;;50.00;35.80;;;;;;;6.10;70.09;103421.72;5023740;28;20049;-68
2022/01/24 10:32:49;;;;;;;24.95;19.13;;;;;;;6.13;70.26;103422.69;5021659;28;20054;-68
2022/01/24 10:35:38;;;;;;;19.42;16.58;;;;;;;6.17;70.17;103416.69;5020888;28;20045;-69
2022/01/24 10:38:33;;;;;;;11.90;8.68;;;;;;;6.22;69.30;103411.56;5036721;28;20867;-67
2022/01/24 10:43:37;;;;;;;;;;;;;;;6.16;69.09;103414.03;5021238;28;20041;-69
2022/01/24 10:46:05;;;;;;;426.95;161.05;;;;;;;6.16;69.10;103407.03;5014904;28;19967;-66
2022/01/24 10:48:39;;;;;;;19.48;17.38;;;;;;;6.21;68.85;103404.56;5040332;28;20118;-67
2022/01/24 10:51:20;;;;;;;59.37;51.90;;;;;;;6.21;68.35;103401.94;5023644;28;20030;-67
2022/01/24 10:53:55;;;;;;;16.08;14.35;;;;;;;6.19;67.79;103403.66;5012726;28;20051;-66
2022/01/24 10:56:35;;;;;;;13.68;9.27;;;;;;;6.16;68.29;103404.44;5025307;28;20042;-66
2022/01/24 10:59:11;;;;;;;11.10;9.00;;;;;;;6.17;68.36;103406.22;5027548;28;20122;-68
2022/01/24 11:01:43;;;;;;;13.93;8.90;;;;;;;6.18;68.63;103394.03;5023518;28;20041;-67
2022/01/24 11:04:15;;;;;;;12.73;9.05;;;;;;;6.22;68.19;103394.16;5028941;28;20053;-67
2022/01/24 11:06:53;;;;;;;14.18;11.02;;;;;;;6.21;67.40;103386.22;5011246;28;20093;-68
2022/01/24 11:09:45;;;;;;;13.82;10.98;;;;;;;6.17;67.17;103390.50;5021599;28;20045;-67
2022/01/24 11:12:13;;;;;;;11.90;10.57;;;;;;;6.11;67.63;103376.31;5014561;28;20492;-67
2022/01/24 11:14:45;;;;;;;20.20;15.68;;;;;;;6.09;67.89;103378.91;5024975;28;20037;-66
2022/01/24 11:17:20;;;;;;;23.77;19.33;;;;;;;6.11;68.11;103379.84;5038664;28;20100;-67
2022/01/24 11:19:54;;;;;;;32.88;24.13;;;;;;;6.14;68.39;103376.44;5020021;28;20043;-65
2022/01/24 11:22:27;;;;;;;15.23;12.80;;;;;;;6.19;68.20;103365.22;5024782;28;20051;-67
2022/01/24 11:25:06;;;;;;;48.53;26.70;;;;;;;6.24;68.50;103367.97;5013032;28;20109;-66
2022/01/24 11:27:39;;;;;;;21.35;17.48;;;;;;;6.30;68.61;103373.41;5021469;28;20556;-66
2022/01/24 11:30:33;;;;;;;19.45;13.40;;;;;;;6.36;68.79;103372.66;5018398;28;20038;-67
2022/01/24 11:33:13;;;;;;;16.77;13.53;;;;;;;6.41;68.50;103373.69;5033161;28;20132;-68
2022/01/24 11:35:51;;;;;;;12.93;11.18;;;;;;;6.46;68.69;103374.69;5029118;28;20057;-69
2022/01/24 11:38:37;;;;;;;16.58;11.63;;;;;;;6.50;68.29;103373.06;5017850;28;20759;-69
2022/01/24 11:41:13;;;;;;;14.77;11.05;;;;;;;6.53;68.45;103391.47;5033947;28;20042;-68
2022/01/24 11:43:45;;;;;;;19.02;15.50;;;;;;;6.57;67.89;103380.25;5022582;28;20077;-68
2022/01/24 11:46:36;;;;;;;15.88;13.35;;;;;;;6.60;67.89;103380.34;5024487;28;20137;-68
2022/01/24 11:49:08;;;;;;;11.15;9.93;;;;;;;6.73;67.72;103364.91;5025788;28;20121;-68
2022/01/24 11:51:38;;;;;;;15.40;11.32;;;;;;;6.83;67.24;103361.69;5025585;28;20049;-67
2022/01/24 11:54:31;;;;;;;12.55;9.50;;;;;;;6.89;66.73;103369.72;5021847;28;20042;-68
2022/01/24 11:57:41;;;;;;;13.68;8.63;;;;;;;6.86;66.78;103367.03;5031176;28;20058;-68
2022/01/24 12:00:08;;;;;;;11.98;8.48;;;;;;;6.86;66.96;103366.16;5017057;28;20054;-67
2022/01/24 12:02:49;;;;;;;19.48;9.02;;;;;;;6.92;66.80;103354.06;5023983;28;20057;-68
2022/01/24 12:05:26;;;;;;;12.02;8.05;;;;;;;6.96;66.99;103347.16;5036223;28;20667;-68
2022/01/24 12:08:07;;;;;;;13.70;9.68;;;;;;;7.05;67.01;103356.97;5019620;28;20038;-68
2022/01/24 12:10:58;;;;;;;16.38;9.00;;;;;;;7.15;66.59;103358.97;5022732;28;20066;-66
2022/01/24 12:13:36;;;;;;;11.35;9.48;;;;;;;7.38;65.81;103356.03;5022222;28;20951;-67
2022/01/24 12:16:10;;;;;;;14.32;9.88;;;;;;;7.64;65.79;103359.25;5018725;28;20125;-67
2022/01/24 12:18:37;;;;;;;15.48;9.38;;;;;;;7.67;65.58;103354.06;5026108;28;20129;-67
2022/01/24 12:21:10;;;;;;;14.10;9.38;;;;;;;7.69;65.73;103343.59;5029436;28;20121;-67
2022/01/24 12:23:44;;;;;;;20.55;14.02;;;;;;;7.72;65.69;103346.31;5025077;28;20049;-67
2022/01/24 12:26:44;;;;;;;19.83;10.63;;;;;;;7.75;65.71;103344.63;5017728;28;20045;-67
2022/01/24 12:29:16;;;;;;;16.73;9.40;;;;;;;7.73;64.59;103337.56;5031434;28;20042;-67
2022/01/24 12:31:52;;;;;;;22.15;9.80;;;;;;;7.68;65.24;103344.44;5022885;28;20038;-66
2022/01/24 12:34:39;;;;;;;11.60;8.60;;;;;;;7.59;65.26;103343.41;5023287;28;20088;-67
2022/01/24 12:37:22;;;;;;;16.17;9.63;;;;;;;7.51;65.39;103344.06;5041297;28;20041;-67
2022/01/24 12:39:57;;;;;;;18.70;10.65;;;;;;;7.37;64.99;103342.03;5027130;28;20038;-67
2022/01/24 12:42:46;;;;;;;15.63;10.10;;;;;;;7.32;65.38;103340.16;5027171;28;20060;-65
2022/01/24 12:48:19;;;;;;;22.45;12.57;;;;;;;7.14;65.33;103331.88;5021174;28;20093;-66
2022/01/24 12:50:52;;;;;;;13.10;11.70;;;;;;;7.06;65.12;103330.81;5020942;28;20145;-66
2022/01/24 12:53:20;;;;;;;17.80;11.02;;;;;;;6.97;65.30;103326.22;5036026;28;20121;-66
2022/01/24 12:56:02;;;;;;;35.95;12.60;;;;;;;6.89;65.76;103326.88;5018590;28;20037;-69
2022/01/24 12:58:43;;;;;;;26.23;15.98;;;;;;;6.88;66.23;103322.47;5022070;28;20804;-67
2022/01/24 13:01:33;;;;;;;20.60;11.15;;;;;;;6.90;66.23;103324.31;5026531;28;20066;-69
2022/01/24 13:04:06;;;;;;;19.02;14.25;;;;;;;6.89;65.88;103314.66;5017073;28;20145;-68
2022/01/24 13:06:37;;;;;;;27.02;12.48;;;;;;;6.90;66.16;103320.78;5021438;28;20038;-68
2022/01/24 13:09:24;;;;;;;49.53;18.48;;;;;;;6.93;66.09;103320.88;5016610;28;20039;-68
2022/01/24 13:11:55;;;;;;;27.48;19.42;;;;;;;6.92;65.81;103314.72;5015026;28;20038;-69
2022/01/24 13:14:49;;;;;;;17.38;12.65;;;;;;;6.89;65.72;103322.53;5017300;28;20129;-68
2022/01/24 13:25:36;;;;;;;17.48;11.18;;;;;;;6.92;65.75;103311.22;5025361;28;20489;-68
2022/01/24 13:28:12;;;;;;;19.80;12.55;;;;;;;6.93;65.71;103319.09;5032634;28;20046;-68
2022/01/24 13:31:00;;;;;;;16.13;10.68;;;;;;;6.94;65.84;103315.63;5035382;28;20034;-68